메인 페이지
METAR-TAF:

METAR-TAF

공항 :

Tupelo Regional Airport (C.D. Lemons Field)

투펄로, 미시시피, 미국

위도: 34-16-05N, 경도: 088-46-12W, 고도: 106m

현재 날씨관측

예보는 15분 전, 08:27시(UTC)에 발표되었습니다.
10kt
온도 16°C
습도 94%
기압 1014 hPa
시정: 8.0km
고도 400ft 상공 흐림
박무

METAR: KTUP 100827Z AUTO 36010KT 5SM BR OVC004 16/15 A2995 RMK AO2 T01610150 $

시각: 03:42 (08:42 UTC)

예보

예보는 54분 전, 07:48시(UTC)에 발표되었습니다.
예보 대상 시간: 10일 08시부터 11일 06시까지 (UTC)
북북동11kt
시정: 10km
고도 600ft 상공 흐림
10일 1800시부터 (UTC)
북북동5kt
시정: 10km
고도 1500ft 상공 흐림

TAF: KTUP 100748Z 1008/1106 02011KT P6SM OVC006 FM101800 03005KT P6SM OVC015

4,000개 이상의 공항 관측 자료 및 예보 (METAR 및 TAF 보고).

지도상에서 검색 가능한 기상관측소가 노란 점과 빨간 점으로 표시되어 있습니다.

기상관측소 명을 보려면 표시 위로 마우스를 이동하세요.

날씨 관측과 예보를 보려면 클릭하세요.

지도 변경 : 확대하려면 엑스 표시가 있는 녹색 버튼, 축소하려면 빼기 표시가 있는 녹색 버튼, 다음 페이지의 지도를 보려면 녹색 화살표를 클릭하세요.


METAR-TAF: